createdAt,value
2022-10-19T00:02:37.292Z,93.27
2022-10-19T00:05:39.972Z,93.79
2022-10-19T00:08:42.919Z,94.44
2022-10-19T00:11:48.199Z,95.50
2022-10-19T00:14:50.910Z,94.77
2022-10-19T00:17:56.485Z,95.82
2022-10-19T00:21:07.028Z,96.63
2022-10-19T00:24:09.807Z,96.43
2022-10-19T00:27:12.308Z,96.33
2022-10-19T00:30:15.169Z,95.52
2022-10-19T00:33:21.603Z,95.64
2022-10-19T00:36:30.088Z,96.12
2022-10-19T00:39:32.607Z,95.83
2022-10-19T00:42:35.334Z,96.34
2022-10-19T00:45:38.031Z,95.92
2022-10-19T00:48:40.691Z,96.27
2022-10-19T00:51:49.411Z,96.50
2022-10-19T00:54:53.553Z,96.69
2022-10-19T00:57:56.418Z,97.04
2022-10-19T01:01:02.246Z,97.49
2022-10-19T01:04:05.165Z,97.79
2022-10-19T01:07:08.368Z,97.50
2022-10-19T01:10:12.207Z,98.02
2022-10-19T01:13:25.845Z,98.19
2022-10-19T01:16:37.399Z,97.56
2022-10-19T01:20:16.996Z,97.75
2022-10-19T01:23:34.100Z,96.90
2022-10-19T01:26:58.406Z,96.65
2022-10-19T01:30:20.680Z,96.76
2022-10-19T01:33:40.276Z,96.13
2022-10-19T01:36:54.471Z,95.91
2022-10-19T01:40:18.420Z,95.82
2022-10-19T01:43:51.238Z,95.74
2022-10-19T01:46:57.302Z,95.39
2022-10-19T01:50:06.538Z,95.46
2022-10-19T01:53:13.018Z,95.28
2022-10-19T01:56:20.405Z,95.42
2022-10-19T01:59:23.502Z,95.55
2022-10-19T02:02:27.706Z,95.43
2022-10-19T02:05:32.611Z,95.15
2022-10-19T02:08:40.767Z,95.35
2022-10-19T02:11:45.328Z,95.35
2022-10-19T02:14:54.364Z,94.72
2022-10-19T02:17:59.890Z,94.76
2022-10-19T02:21:05.935Z,93.41
2022-10-19T02:24:08.754Z,93.08
2022-10-19T02:27:14.408Z,93.55
2022-10-19T02:30:18.525Z,93.60
2022-10-19T02:33:21.117Z,94.01
2022-10-19T02:36:23.951Z,94.07
2022-10-19T02:39:26.669Z,94.33
2022-10-19T02:42:55.716Z,94.37
2022-10-19T02:46:05.750Z,94.76
2022-10-19T02:49:09.767Z,95.74
2022-10-19T02:52:13.362Z,97.84
2022-10-19T02:55:16.008Z,99.98
2022-10-19T02:58:18.647Z,100.00
2022-10-19T03:01:21.525Z,99.67
2022-10-19T03:04:24.257Z,100.00
2022-10-19T03:07:27.026Z,100.00
2022-10-19T03:10:32.731Z,99.84
2022-10-19T03:13:35.340Z,100.00
2022-10-19T03:16:38.569Z,100.00
2022-10-19T03:19:44.013Z,100.00
2022-10-19T03:22:46.852Z,100.00
2022-10-19T03:25:49.425Z,100.00
2022-10-19T03:28:52.567Z,100.00
2022-10-19T03:31:57.705Z,100.00
2022-10-19T03:35:00.623Z,100.00
2022-10-19T03:38:03.218Z,100.00
2022-10-19T03:41:08.559Z,100.00
2022-10-19T03:44:11.836Z,100.00
2022-10-19T03:47:14.397Z,100.00
2022-10-19T03:50:18.502Z,100.00
2022-10-19T03:53:21.138Z,100.00
2022-10-19T03:56:25.588Z,100.00
2022-10-19T03:59:28.346Z,100.00
2022-10-19T04:02:30.902Z,100.00
2022-10-19T04:05:33.606Z,100.00
2022-10-19T04:08:37.068Z,100.00
2022-10-19T04:11:40.180Z,100.00
2022-10-19T04:14:56.747Z,100.00
2022-10-19T04:18:02.857Z,100.00
2022-10-19T04:21:07.057Z,100.00
2022-10-19T04:24:13.395Z,100.00
2022-10-19T04:27:16.003Z,100.00
2022-10-19T04:30:18.563Z,100.00
2022-10-19T04:33:21.149Z,100.00
2022-10-19T04:36:24.553Z,100.00
2022-10-19T04:39:27.275Z,100.00
2022-10-19T04:42:29.928Z,100.00
2022-10-19T04:45:35.143Z,100.00
2022-10-19T04:48:38.603Z,100.00
2022-10-19T04:51:41.233Z,100.00
2022-10-19T04:54:43.764Z,100.00
2022-10-19T04:57:46.418Z,100.00
2022-10-19T05:00:49.369Z,100.00
2022-10-19T05:07:04.244Z,100.00
2022-10-19T05:10:08.556Z,100.00
2022-10-19T05:13:11.599Z,100.00
2022-10-19T05:16:18.052Z,100.00
2022-10-19T05:19:21.533Z,100.00
2022-10-19T05:22:24.688Z,100.00
2022-10-19T05:25:27.312Z,100.00
2022-10-19T05:28:30.519Z,99.92
2022-10-19T05:31:34.258Z,99.86
2022-10-19T05:34:36.862Z,99.28
2022-10-19T05:37:39.857Z,99.44
2022-10-19T05:40:51.531Z,99.46
2022-10-19T05:43:58.747Z,99.42
2022-10-19T05:47:01.800Z,99.05
2022-10-19T05:50:05.192Z,99.19
2022-10-19T05:53:08.162Z,98.89
2022-10-19T05:56:15.296Z,98.04
2022-10-19T05:59:19.959Z,97.87
2022-10-19T06:02:22.597Z,97.54
2022-10-19T06:05:25.151Z,96.81
2022-10-19T06:08:27.805Z,96.65
2022-10-19T06:11:35.249Z,96.00
2022-10-19T06:14:38.048Z,95.23
2022-10-19T06:17:40.656Z,95.08
2022-10-19T06:20:45.532Z,95.00
2022-10-19T06:23:52.307Z,94.87
2022-10-19T06:26:55.040Z,94.48
2022-10-19T06:29:57.629Z,94.02
2022-10-19T06:33:00.640Z,93.53
2022-10-19T06:36:11.885Z,93.09
2022-10-19T06:39:14.552Z,92.96
2022-10-19T06:42:17.202Z,92.30
2022-10-19T06:45:19.887Z,91.74
2022-10-19T06:48:23.091Z,91.70
2022-10-19T06:51:27.109Z,91.12
2022-10-19T06:54:29.934Z,91.04
2022-10-19T06:57:33.037Z,90.88
2022-10-19T07:00:36.585Z,90.46
2022-10-19T07:03:39.455Z,89.24
2022-10-19T07:06:42.075Z,88.96
2022-10-19T07:09:44.833Z,88.79
2022-10-19T07:12:47.368Z,88.78
2022-10-19T07:15:50.154Z,88.12
2022-10-19T07:18:53.536Z,88.06
2022-10-19T07:21:56.249Z,86.90
2022-10-19T07:24:59.100Z,86.34
2022-10-19T07:28:01.838Z,86.18
2022-10-19T07:31:10.116Z,86.17
2022-10-19T07:34:15.038Z,85.43
2022-10-19T07:37:17.848Z,85.58
2022-10-19T07:40:22.132Z,84.61
2022-10-19T07:43:24.736Z,85.17
2022-10-19T07:46:29.949Z,84.58
2022-10-19T07:49:32.528Z,83.83
2022-10-19T07:52:36.897Z,83.18
2022-10-19T07:55:39.987Z,82.11
2022-10-19T07:58:43.275Z,82.58
2022-10-19T08:01:47.745Z,81.11
2022-10-19T08:05:09.228Z,80.94
2022-10-19T08:08:14.136Z,81.00
2022-10-19T08:11:25.391Z,79.58
2022-10-19T08:14:28.084Z,79.30
2022-10-19T08:17:31.112Z,78.10
2022-10-19T08:20:35.065Z,78.13
2022-10-19T08:23:37.646Z,77.42
2022-10-19T08:26:40.998Z,76.89
2022-10-19T08:29:43.691Z,76.41
2022-10-19T08:32:46.372Z,75.48
2022-10-19T08:35:48.902Z,74.17
2022-10-19T08:38:51.682Z,74.96
2022-10-19T08:42:30.501Z,74.16
2022-10-19T08:48:49.852Z,71.84
2022-10-19T08:51:59.390Z,71.06
2022-10-19T08:55:09.234Z,71.30
2022-10-19T08:58:27.810Z,70.61
2022-10-19T09:01:47.020Z,69.83
2022-10-19T09:04:56.772Z,68.78
2022-10-19T09:07:59.570Z,68.03
2022-10-19T09:11:02.360Z,67.05
2022-10-19T09:14:30.840Z,65.20
2022-10-19T09:17:33.932Z,65.31
2022-10-19T09:20:39.202Z,63.95
2022-10-19T09:23:58.551Z,63.36
2022-10-19T09:27:02.308Z,63.74
2022-10-19T09:30:11.397Z,65.23
2022-10-19T09:33:24.544Z,66.92
2022-10-19T09:36:50.133Z,64.52
2022-10-19T09:39:55.675Z,66.62
2022-10-19T09:42:59.658Z,63.83
2022-10-19T09:46:19.715Z,63.05
2022-10-19T09:49:41.899Z,60.09
2022-10-19T09:52:46.098Z,62.47
2022-10-19T09:55:53.695Z,64.04
2022-10-19T09:58:57.978Z,63.62
2022-10-19T10:02:15.195Z,64.58
2022-10-19T10:05:19.222Z,64.10
2022-10-19T10:08:25.897Z,63.73
2022-10-19T10:11:32.197Z,61.33
2022-10-19T10:14:36.568Z,58.34
2022-10-19T10:17:39.278Z,59.01
2022-10-19T10:20:58.513Z,56.88
2022-10-19T10:24:10.827Z,54.63
2022-10-19T10:27:29.146Z,57.04
2022-10-19T10:30:37.124Z,58.79
2022-10-19T10:33:45.104Z,58.78
2022-10-19T10:36:54.033Z,59.76
2022-10-19T10:40:00.522Z,57.56
2022-10-19T10:43:16.834Z,56.73
2022-10-19T10:46:23.097Z,55.30
2022-10-19T10:49:34.425Z,57.11
2022-10-19T10:52:37.647Z,58.01
2022-10-19T10:55:40.478Z,59.41
2022-10-19T10:58:50.088Z,58.82
2022-10-19T11:02:04.697Z,59.00
2022-10-19T11:05:18.714Z,59.93
2022-10-19T11:08:34.108Z,59.96
2022-10-19T11:11:41.279Z,60.44
2022-10-19T11:14:56.860Z,61.16
2022-10-19T11:18:08.405Z,61.68
2022-10-19T11:21:38.293Z,62.09
2022-10-19T11:25:00.189Z,62.04
2022-10-19T11:28:15.350Z,61.69
2022-10-19T11:31:32.970Z,62.51
2022-10-19T11:35:00.284Z,61.78
2022-10-19T11:38:24.170Z,62.24
2022-10-19T11:41:46.608Z,62.18
2022-10-19T11:45:02.985Z,62.97
2022-10-19T11:48:09.639Z,62.42
2022-10-19T11:51:22.153Z,62.13
2022-10-19T11:54:45.571Z,62.37
2022-10-19T11:57:54.252Z,59.66
2022-10-19T12:01:13.210Z,58.61
2022-10-19T12:04:16.287Z,59.22
2022-10-19T12:07:47.313Z,57.63
2022-10-19T12:11:26.283Z,52.17
2022-10-19T12:14:33.123Z,50.02
2022-10-19T12:17:38.245Z,51.91
2022-10-19T12:20:51.608Z,51.63
2022-10-19T12:23:55.097Z,48.84
2022-10-19T12:26:58.106Z,45.93
2022-10-19T12:30:13.814Z,46.21
2022-10-19T12:36:44.987Z,44.87
2022-10-19T12:40:32.747Z,42.47
2022-10-19T12:43:44.086Z,43.36
2022-10-19T12:46:51.660Z,44.75
2022-10-19T12:49:57.899Z,44.00
2022-10-19T12:53:00.628Z,43.83
2022-10-19T12:56:23.311Z,43.32
2022-10-19T12:59:35.678Z,42.69
2022-10-19T13:02:39.847Z,42.62
2022-10-19T13:05:42.612Z,41.59
2022-10-19T13:08:56.660Z,40.36
2022-10-19T13:12:19.286Z,40.59
2022-10-19T13:15:34.333Z,40.49
2022-10-19T13:19:15.130Z,40.76
2022-10-19T13:22:27.208Z,40.12
2022-10-19T13:25:37.326Z,38.83
2022-10-19T13:28:53.182Z,42.11
2022-10-19T13:31:56.049Z,41.36
2022-10-19T13:35:34.106Z,40.47
2022-10-19T13:38:43.601Z,38.82
2022-10-19T13:41:48.455Z,40.29
2022-10-19T13:44:53.258Z,39.52
2022-10-19T13:48:06.616Z,39.96
2022-10-19T13:51:37.608Z,39.34
2022-10-19T13:55:13.106Z,38.12
2022-10-19T13:58:28.420Z,37.48
2022-10-19T14:02:10.060Z,38.07
2022-10-19T14:05:39.615Z,36.13
2022-10-19T14:08:45.886Z,35.79
2022-10-19T14:12:09.053Z,37.43
2022-10-19T14:15:34.452Z,37.10
2022-10-19T14:18:54.091Z,37.03
2022-10-19T14:22:23.008Z,36.84
2022-10-19T14:25:28.812Z,37.37
2022-10-19T14:28:33.786Z,37.22
2022-10-19T14:31:37.103Z,40.81
2022-10-19T14:34:43.167Z,41.73
2022-10-19T14:37:45.897Z,41.58
2022-10-19T14:40:48.577Z,40.65
2022-10-19T14:43:51.192Z,40.77
2022-10-19T14:46:54.282Z,40.99
2022-10-19T14:49:57.282Z,41.81
2022-10-19T14:53:29.835Z,42.23
2022-10-19T14:56:50.966Z,41.05
2022-10-19T14:59:57.708Z,41.81
2022-10-19T15:03:04.434Z,45.20
2022-10-19T15:06:07.554Z,45.74
2022-10-19T15:09:36.731Z,47.37
2022-10-19T15:12:42.404Z,47.68
2022-10-19T15:15:45.387Z,48.56
2022-10-19T15:18:49.866Z,49.32
2022-10-19T15:22:14.320Z,49.48
2022-10-19T15:25:23.765Z,51.49
2022-10-19T15:28:41.567Z,52.94
2022-10-19T15:31:44.701Z,54.66
2022-10-19T15:34:47.598Z,55.41
2022-10-19T15:37:51.194Z,56.88
2022-10-19T15:40:59.561Z,56.73
2022-10-19T15:44:08.538Z,57.98
2022-10-19T15:47:20.469Z,57.86
2022-10-19T15:50:33.063Z,58.33
2022-10-19T15:53:35.829Z,59.54
2022-10-19T15:56:40.325Z,59.97
2022-10-19T15:59:42.968Z,59.53
2022-10-19T16:02:45.686Z,59.95
2022-10-19T16:05:48.502Z,60.52
2022-10-19T16:08:51.466Z,61.36
2022-10-19T16:11:57.263Z,61.93
2022-10-19T16:14:59.936Z,61.51
2022-10-19T16:18:03.230Z,61.93
2022-10-19T16:21:06.394Z,61.21
2022-10-19T16:24:08.965Z,60.58
2022-10-19T16:27:15.449Z,61.30
2022-10-19T16:30:18.594Z,61.15
2022-10-19T16:33:21.460Z,61.00
2022-10-19T16:36:24.188Z,60.19
2022-10-19T16:39:27.318Z,60.20
2022-10-19T16:42:33.592Z,60.43
2022-10-19T16:45:37.242Z,60.53
2022-10-19T16:48:40.806Z,60.86
2022-10-19T16:51:44.594Z,60.85
2022-10-19T16:54:47.741Z,61.05
2022-10-19T16:57:50.970Z,61.05
2022-10-19T17:00:56.796Z,61.43
2022-10-19T17:04:00.059Z,60.72
2022-10-19T17:07:03.209Z,61.65
2022-10-19T17:10:06.468Z,61.57
2022-10-19T17:13:09.891Z,62.02
2022-10-19T17:16:13.858Z,62.08
2022-10-19T17:19:17.354Z,61.99
2022-10-19T17:22:20.504Z,61.85
2022-10-19T17:25:23.503Z,62.81
2022-10-19T17:28:27.755Z,62.85
2022-10-19T17:31:31.385Z,63.29
2022-10-19T17:34:35.780Z,63.76
2022-10-19T17:37:38.760Z,63.79
2022-10-19T17:40:44.406Z,63.91
2022-10-19T17:43:48.290Z,64.07
2022-10-19T17:46:51.339Z,64.08
2022-10-19T17:49:54.549Z,64.35
2022-10-19T17:52:58.733Z,64.61
2022-10-19T17:56:06.940Z,64.04
2022-10-19T17:59:09.997Z,64.49
2022-10-19T18:02:12.937Z,64.86
2022-10-19T18:05:16.022Z,65.31
2022-10-19T18:08:18.934Z,65.34
2022-10-19T18:11:35.399Z,66.00
2022-10-19T18:14:40.064Z,66.04
2022-10-19T18:17:43.462Z,66.31
2022-10-19T18:20:46.942Z,67.71
2022-10-19T18:23:50.022Z,67.97
2022-10-19T18:26:53.544Z,67.93
2022-10-19T18:29:56.901Z,67.92
2022-10-19T18:33:00.096Z,68.59
2022-10-19T18:36:04.036Z,68.56
2022-10-19T18:39:07.799Z,68.09
2022-10-19T18:42:12.946Z,68.17
2022-10-19T18:45:16.667Z,68.34
2022-10-19T18:48:19.831Z,68.61
2022-10-19T18:51:24.302Z,68.80
2022-10-19T18:54:28.257Z,69.19
2022-10-19T18:57:31.923Z,69.73
2022-10-19T19:00:39.032Z,70.12
2022-10-19T19:03:47.057Z,70.85
2022-10-19T19:06:50.069Z,70.98
2022-10-19T19:09:53.392Z,71.27
2022-10-19T19:12:57.591Z,71.53
2022-10-19T19:16:01.010Z,71.78
2022-10-19T19:19:05.631Z,71.93
2022-10-19T19:22:08.951Z,72.32
2022-10-19T19:25:12.178Z,72.68
2022-10-19T19:28:15.578Z,73.07
2022-10-19T19:31:20.964Z,73.79
2022-10-19T19:34:23.933Z,74.41
2022-10-19T19:37:27.490Z,73.95
2022-10-19T19:40:34.653Z,74.23
2022-10-19T19:43:38.914Z,74.29
2022-10-19T19:46:41.911Z,73.54
2022-10-19T19:49:44.597Z,73.62
2022-10-19T19:52:48.797Z,73.91
2022-10-19T19:55:51.550Z,74.36
2022-10-19T19:58:56.652Z,74.18
2022-10-19T20:01:59.562Z,74.63
2022-10-19T20:05:02.486Z,74.46
2022-10-19T20:08:06.326Z,74.97
2022-10-19T20:11:12.156Z,74.74
2022-10-19T20:14:15.069Z,74.83
2022-10-19T20:17:23.697Z,74.64
2022-10-19T20:20:29.636Z,74.44
2022-10-19T20:23:32.860Z,74.53
2022-10-19T20:26:36.149Z,75.25
2022-10-19T20:29:40.711Z,75.36
2022-10-19T20:32:44.325Z,75.61
2022-10-19T20:35:47.811Z,75.58
2022-10-19T20:38:53.521Z,75.90
2022-10-19T20:41:56.458Z,76.04
2022-10-19T20:44:59.064Z,75.92
2022-10-19T20:48:01.701Z,76.41
2022-10-19T20:51:30.711Z,76.15
2022-10-19T20:54:36.036Z,75.47
2022-10-19T20:57:38.738Z,75.22
2022-10-19T21:00:42.302Z,75.59
2022-10-19T21:03:52.932Z,74.91
2022-10-19T21:06:55.629Z,75.17
2022-10-19T21:09:58.716Z,75.63
2022-10-19T21:13:01.409Z,75.31
2022-10-19T21:16:18.239Z,75.17
2022-10-19T21:19:22.746Z,75.43
2022-10-19T21:22:25.364Z,75.08
2022-10-19T21:25:30.485Z,75.73
2022-10-19T21:28:33.129Z,75.97
2022-10-19T21:31:37.005Z,76.61
2022-10-19T21:34:39.628Z,77.61
2022-10-19T21:37:42.263Z,77.16
2022-10-19T21:40:45.563Z,77.62
2022-10-19T21:43:48.474Z,78.43
2022-10-19T21:46:51.123Z,78.86
2022-10-19T21:49:53.688Z,79.43
2022-10-19T21:52:56.256Z,80.81
2022-10-19T21:55:59.628Z,81.54
2022-10-19T21:59:02.377Z,82.33
2022-10-19T22:02:05.044Z,82.75
2022-10-19T22:05:08.149Z,83.27
2022-10-19T22:08:10.997Z,83.60
2022-10-19T22:11:14.785Z,84.22
2022-10-19T22:14:17.906Z,84.90
2022-10-19T22:17:20.558Z,85.41
2022-10-19T22:20:25.399Z,85.78
2022-10-19T22:23:28.010Z,86.68
2022-10-19T22:26:39.400Z,86.26
2022-10-19T22:29:42.089Z,86.42
2022-10-19T22:32:44.673Z,86.06
2022-10-19T22:35:57.957Z,88.24
2022-10-19T22:39:00.533Z,87.74
2022-10-19T22:42:56.242Z,87.47
2022-10-19T22:45:58.826Z,88.21
2022-10-19T22:49:01.585Z,87.94
2022-10-19T22:52:04.433Z,88.42
2022-10-19T22:55:07.314Z,87.77
2022-10-19T23:01:17.831Z,88.17
2022-10-19T23:04:21.377Z,88.10
2022-10-19T23:07:24.045Z,88.22
2022-10-19T23:10:26.772Z,89.24
2022-10-19T23:13:29.622Z,89.48
2022-10-19T23:16:32.288Z,89.15
2022-10-19T23:19:35.034Z,89.24
2022-10-19T23:22:37.761Z,89.93
2022-10-19T23:25:40.394Z,89.66
2022-10-19T23:28:44.256Z,90.60
2022-10-19T23:31:50.958Z,89.82
2022-10-19T23:34:53.930Z,90.14
2022-10-19T23:37:59.670Z,89.83
2022-10-19T23:41:02.638Z,89.98
2022-10-19T23:44:05.629Z,89.95
2022-10-19T23:47:08.189Z,90.77
2022-10-19T23:50:11.131Z,90.39
2022-10-19T23:53:13.710Z,90.47
2022-10-19T23:56:27.875Z,90.60
2022-10-19T23:59:30.501Z,90.48
